createdAt,value
2018-12-11T00:00:30.846Z,1005.80
2018-12-11T00:01:30.836Z,1005.79
2018-12-11T00:02:30.824Z,1005.76
2018-12-11T00:03:30.815Z,1005.80
2018-12-11T00:04:30.802Z,1005.78
2018-12-11T00:05:31.076Z,1005.78
2018-12-11T00:06:30.779Z,1005.79
2018-12-11T00:07:30.769Z,1005.81
2018-12-11T00:08:30.758Z,1005.81
2018-12-11T00:09:30.747Z,1005.85
2018-12-11T00:10:30.735Z,1005.83
2018-12-11T00:11:34.030Z,1005.76
2018-12-11T00:12:30.717Z,1005.83
2018-12-11T00:13:30.704Z,1005.80
2018-12-11T00:14:30.758Z,1005.79
2018-12-11T00:15:30.681Z,1005.78
2018-12-11T00:16:30.671Z,1005.84
2018-12-11T00:17:30.983Z,1005.79
2018-12-11T00:18:30.648Z,1005.74
2018-12-11T00:19:30.635Z,1005.79
2018-12-11T00:20:30.625Z,1005.79
2018-12-11T00:21:30.614Z,1005.82
2018-12-11T00:22:30.604Z,1005.81
2018-12-11T00:23:30.602Z,1005.77
2018-12-11T00:24:30.580Z,1005.85
2018-12-11T00:25:30.569Z,1005.83
2018-12-11T00:26:30.560Z,1005.80
2018-12-11T00:27:30.548Z,1005.78
2018-12-11T00:28:30.537Z,1005.77
2018-12-11T00:29:30.534Z,1005.71
2018-12-11T00:30:30.513Z,1005.74
2018-12-11T00:31:30.502Z,1005.75
2018-12-11T00:32:30.512Z,1005.77
2018-12-11T00:33:30.481Z,1005.74
2018-12-11T00:34:30.470Z,1005.74
2018-12-11T00:35:30.468Z,1005.72
2018-12-11T00:36:30.452Z,1005.75
2018-12-11T00:37:30.436Z,1005.65
2018-12-11T00:38:30.425Z,1005.65
2018-12-11T00:39:30.414Z,1005.61
2018-12-11T00:40:30.406Z,1005.60
2018-12-11T00:41:30.408Z,1005.64
2018-12-11T00:42:30.382Z,1005.52
2018-12-11T00:43:30.372Z,1005.50
2018-12-11T00:44:30.360Z,1005.56
2018-12-11T00:45:30.347Z,1005.63
2018-12-11T00:46:30.337Z,1005.67
2018-12-11T00:47:30.348Z,1005.73
2018-12-11T00:48:30.316Z,1005.72
2018-12-11T00:49:30.311Z,1005.70
2018-12-11T00:50:30.296Z,1005.72
2018-12-11T00:51:30.286Z,1005.71
2018-12-11T00:52:30.274Z,1005.73
2018-12-11T00:53:30.544Z,1005.77
2018-12-11T00:54:30.249Z,1005.65
2018-12-11T00:55:30.239Z,1005.68
2018-12-11T00:56:30.227Z,1005.71
2018-12-11T00:57:30.216Z,1005.66
2018-12-11T00:58:30.207Z,1005.64
2018-12-11T00:59:30.481Z,1005.70
2018-12-11T01:00:30.183Z,1005.62
2018-12-11T01:01:30.172Z,1005.63
2018-12-11T01:02:30.160Z,1005.62
2018-12-11T01:03:30.149Z,1005.65
2018-12-11T01:04:30.141Z,1005.57
2018-12-11T01:05:30.413Z,1005.58
2018-12-11T01:06:30.169Z,1005.59
2018-12-11T01:07:30.106Z,1005.56
2018-12-11T01:08:30.095Z,1005.57
2018-12-11T01:09:30.083Z,1005.61
2018-12-11T01:10:30.071Z,1005.59
2018-12-11T01:11:30.070Z,1005.65
2018-12-11T01:12:30.050Z,1005.58
2018-12-11T01:13:30.040Z,1005.58
2018-12-11T01:14:30.028Z,1005.64
2018-12-11T01:15:30.018Z,1005.61
2018-12-11T01:16:30.009Z,1005.62
2018-12-11T01:17:30.010Z,1005.61
2018-12-11T01:18:29.986Z,1005.53
2018-12-11T01:19:29.974Z,1005.53
2018-12-11T01:20:29.963Z,1005.47
2018-12-11T01:21:29.952Z,1005.49
2018-12-11T01:22:29.940Z,1005.44
2018-12-11T01:23:29.938Z,1005.48
2018-12-11T01:24:29.916Z,1005.45
2018-12-11T01:25:29.906Z,1005.50
2018-12-11T01:26:29.896Z,1005.51
2018-12-11T01:27:29.883Z,1005.53
2018-12-11T01:28:29.873Z,1005.51
2018-12-11T01:29:30.143Z,1005.49
2018-12-11T01:30:29.855Z,1005.51
2018-12-11T01:31:29.841Z,1005.59
2018-12-11T01:32:29.828Z,1005.64
2018-12-11T01:33:29.818Z,1005.65
2018-12-11T01:34:29.807Z,1005.64
2018-12-11T01:35:30.117Z,1005.55
2018-12-11T01:36:29.785Z,1005.47
2018-12-11T01:37:29.777Z,1005.53
2018-12-11T01:38:29.762Z,1005.55
2018-12-11T01:39:29.752Z,1005.59
2018-12-11T01:40:29.739Z,1005.57
2018-12-11T01:41:30.013Z,1005.54
2018-12-11T01:42:29.719Z,1005.57
2018-12-11T01:43:29.706Z,1005.57
2018-12-11T01:44:29.697Z,1005.59
2018-12-11T01:45:29.686Z,1005.61
2018-12-11T01:46:29.674Z,1005.55
2018-12-11T01:47:29.674Z,1005.65
2018-12-11T01:48:29.656Z,1005.59
2018-12-11T01:49:29.641Z,1005.57
2018-12-11T01:50:29.631Z,1005.54
2018-12-11T01:51:29.618Z,1005.55
2018-12-11T01:52:29.608Z,1005.54
2018-12-11T01:53:29.603Z,1005.57
2018-12-11T01:54:29.600Z,1005.56
2018-12-11T01:55:29.573Z,1005.48
2018-12-11T01:56:29.563Z,1005.51
2018-12-11T01:57:29.553Z,1005.55
2018-12-11T01:58:29.542Z,1005.64
2018-12-11T01:59:29.536Z,1005.57
2018-12-11T02:00:29.519Z,1005.62
2018-12-11T02:01:29.508Z,1005.53
2018-12-11T02:02:29.499Z,1005.54
2018-12-11T02:03:29.486Z,1005.53
2018-12-11T02:04:29.477Z,1005.58
2018-12-11T02:05:29.471Z,1005.60
2018-12-11T02:06:29.453Z,1005.68
2018-12-11T02:07:29.442Z,1005.62
2018-12-11T02:08:29.431Z,1005.61
2018-12-11T02:09:29.419Z,1005.64
2018-12-11T02:10:29.410Z,1005.69
2018-12-11T02:11:29.407Z,1005.69
2018-12-11T02:12:29.386Z,1005.69
2018-12-11T02:13:29.375Z,1005.65
2018-12-11T02:14:29.364Z,1005.65
2018-12-11T02:15:29.357Z,1005.66
2018-12-11T02:16:29.341Z,1005.70
2018-12-11T02:17:29.615Z,1005.64
2018-12-11T02:18:29.319Z,1005.68
2018-12-11T02:19:29.310Z,1005.62
2018-12-11T02:20:29.298Z,1005.59
2018-12-11T02:21:29.313Z,1005.55
2018-12-11T02:22:29.277Z,1005.55
2018-12-11T02:23:29.542Z,1005.56
2018-12-11T02:24:29.254Z,1005.56
2018-12-11T02:25:29.245Z,1005.55
2018-12-11T02:26:29.232Z,1005.57
2018-12-11T02:27:29.221Z,1005.59
2018-12-11T02:28:29.210Z,1005.47
2018-12-11T02:29:29.485Z,1005.54
2018-12-11T02:30:29.188Z,1005.54
2018-12-11T02:31:29.176Z,1005.53
2018-12-11T02:32:29.165Z,1005.47
2018-12-11T02:33:29.159Z,1005.57
2018-12-11T02:34:29.146Z,1005.59
2018-12-11T02:35:29.418Z,1005.51
2018-12-11T02:36:29.122Z,1005.47
2018-12-11T02:37:29.113Z,1005.43
2018-12-11T02:38:29.102Z,1005.44
2018-12-11T02:39:29.089Z,1005.42
2018-12-11T02:40:29.077Z,1005.42
2018-12-11T02:41:29.075Z,1005.42
2018-12-11T02:42:29.054Z,1005.38
2018-12-11T02:43:29.046Z,1005.39
2018-12-11T02:44:29.036Z,1005.42
2018-12-11T02:45:29.022Z,1005.45
2018-12-11T02:46:29.011Z,1005.36
2018-12-11T02:47:29.027Z,1005.41
2018-12-11T02:48:28.991Z,1005.44
2018-12-11T02:49:28.980Z,1005.40
2018-12-11T02:50:28.966Z,1005.40
2018-12-11T02:51:28.956Z,1005.38
2018-12-11T02:52:28.947Z,1005.36
2018-12-11T02:53:28.941Z,1005.37
2018-12-11T02:54:28.924Z,1005.34
2018-12-11T02:55:28.914Z,1005.39
2018-12-11T02:56:28.902Z,1005.35
2018-12-11T02:57:28.891Z,1005.37
2018-12-11T02:58:28.879Z,1005.31
2018-12-11T02:59:28.880Z,1005.31
2018-12-11T03:00:28.857Z,1005.41
2018-12-11T03:01:28.849Z,1005.32
2018-12-11T03:02:28.834Z,1005.28
2018-12-11T03:03:28.825Z,1005.32
2018-12-11T03:04:28.815Z,1005.34
2018-12-11T03:05:28.808Z,1005.30
2018-12-11T03:06:28.790Z,1005.29
2018-12-11T03:07:28.779Z,1005.27
2018-12-11T03:08:28.777Z,1005.24
2018-12-11T03:09:28.759Z,1005.25
2018-12-11T03:10:28.746Z,1005.24
2018-12-11T03:11:29.021Z,1005.32
2018-12-11T03:12:28.724Z,1005.28
2018-12-11T03:13:28.714Z,1005.32
2018-12-11T03:14:28.702Z,1005.32
2018-12-11T03:15:28.690Z,1005.30
2018-12-11T03:16:28.680Z,1005.28
2018-12-11T03:17:28.942Z,1005.28
2018-12-11T03:18:28.658Z,1005.25
2018-12-11T03:19:28.647Z,1005.25
2018-12-11T03:20:28.637Z,1005.14
2018-12-11T03:21:28.625Z,1005.15
2018-12-11T03:22:28.616Z,1005.16
2018-12-11T03:23:28.610Z,1005.14
2018-12-11T03:24:28.593Z,1005.26
2018-12-11T03:25:28.586Z,1005.33
2018-12-11T03:26:28.570Z,1005.40
2018-12-11T03:27:28.560Z,1005.42
2018-12-11T03:28:28.549Z,1005.38
2018-12-11T03:29:28.824Z,1005.40
2018-12-11T03:30:28.528Z,1005.39
2018-12-11T03:31:28.517Z,1005.29
2018-12-11T03:32:28.506Z,1005.25
2018-12-11T03:33:28.495Z,1005.27
2018-12-11T03:34:28.489Z,1005.21
2018-12-11T03:35:28.764Z,1005.28
2018-12-11T03:36:28.458Z,1005.35
2018-12-11T03:37:28.450Z,1005.27
2018-12-11T03:38:28.438Z,1005.34
2018-12-11T03:39:28.431Z,1005.29
2018-12-11T03:40:28.421Z,1005.28
2018-12-11T03:41:28.674Z,1005.26
2018-12-11T03:42:28.394Z,1005.25
2018-12-11T03:43:28.383Z,1005.28
2018-12-11T03:44:28.371Z,1005.23
2018-12-11T03:45:28.369Z,1005.29
2018-12-11T03:46:28.348Z,1005.13
2018-12-11T03:47:28.652Z,1005.22
2018-12-11T03:48:28.327Z,1005.23
2018-12-11T03:49:28.315Z,1005.21
2018-12-11T03:50:28.307Z,1005.17
2018-12-11T03:51:28.296Z,1005.24
2018-12-11T03:52:28.290Z,1005.20
2018-12-11T03:53:28.281Z,1005.18
2018-12-11T03:54:28.263Z,1005.22
2018-12-11T03:55:28.252Z,1005.15
2018-12-11T03:56:28.237Z,1005.21
2018-12-11T03:57:28.230Z,1005.14
2018-12-11T03:58:28.218Z,1005.19
2018-12-11T03:59:28.213Z,1005.20
2018-12-11T04:00:28.194Z,1005.23
2018-12-11T04:01:28.184Z,1005.21
2018-12-11T04:02:28.172Z,1005.20
2018-12-11T04:03:28.160Z,1005.29
2018-12-11T04:04:28.153Z,1005.18
2018-12-11T04:05:28.147Z,1005.19
2018-12-11T04:06:28.127Z,1005.19
2018-12-11T04:07:28.117Z,1005.18
2018-12-11T04:08:28.109Z,1005.20
2018-12-11T04:09:28.096Z,1005.18
2018-12-11T04:10:28.087Z,1005.20
2018-12-11T04:11:28.081Z,1005.23
2018-12-11T04:12:28.062Z,1005.28
2018-12-11T04:13:28.052Z,1005.23
2018-12-11T04:14:28.043Z,1005.16
2018-12-11T04:15:28.029Z,1005.18
2018-12-11T04:16:28.019Z,1005.26
2018-12-11T04:17:28.013Z,1005.24
2018-12-11T04:18:28.000Z,1005.17
2018-12-11T04:19:27.985Z,1005.22
2018-12-11T04:20:27.974Z,1005.21
2018-12-11T04:21:27.963Z,1005.25
2018-12-11T04:22:27.952Z,1005.21
2018-12-11T04:23:27.947Z,1005.28
2018-12-11T04:24:27.930Z,1005.27
2018-12-11T04:25:27.921Z,1005.26
2018-12-11T04:26:27.907Z,1005.26
2018-12-11T04:27:27.896Z,1005.25
2018-12-11T04:28:27.885Z,1005.32
2018-12-11T04:29:28.159Z,1005.28
2018-12-11T04:30:27.864Z,1005.39
2018-12-11T04:31:27.854Z,1005.29
2018-12-11T04:32:27.841Z,1005.28
2018-12-11T04:33:27.832Z,1005.30
2018-12-11T04:34:27.819Z,1005.33
2018-12-11T04:35:28.100Z,1005.33
2018-12-11T04:36:27.799Z,1005.34
2018-12-11T04:37:27.784Z,1005.36
2018-12-11T04:38:27.779Z,1005.33
2018-12-11T04:39:33.622Z,1005.40
2018-12-11T04:40:29.020Z,1005.35
2018-12-11T04:41:27.741Z,1005.33
2018-12-11T04:42:27.729Z,1005.48
2018-12-11T04:43:27.720Z,1005.34
2018-12-11T04:44:27.709Z,1005.29
2018-12-11T04:45:27.697Z,1005.34
2018-12-11T04:46:27.694Z,1005.37
2018-12-11T04:47:27.675Z,1005.38
2018-12-11T04:48:27.665Z,1005.35
2018-12-11T04:49:27.652Z,1005.41
2018-12-11T04:50:27.645Z,1005.40
2018-12-11T04:51:27.630Z,1005.45
2018-12-11T04:52:27.640Z,1005.41
2018-12-11T04:53:27.609Z,1005.36
2018-12-11T04:54:27.598Z,1005.34
2018-12-11T04:55:27.589Z,1005.41
2018-12-11T04:56:27.575Z,1005.46
2018-12-11T04:57:27.565Z,1005.40
2018-12-11T04:58:27.563Z,1005.48
2018-12-11T04:59:27.546Z,1005.40
2018-12-11T05:00:27.534Z,1005.46
2018-12-11T05:01:27.521Z,1005.46
2018-12-11T05:02:27.509Z,1005.38
2018-12-11T05:03:27.501Z,1005.45
2018-12-11T05:04:27.498Z,1005.37
2018-12-11T05:05:27.477Z,1005.44
2018-12-11T05:06:27.465Z,1005.44
2018-12-11T05:07:27.460Z,1005.48
2018-12-11T05:08:27.443Z,1005.44
2018-12-11T05:09:27.432Z,1005.51
2018-12-11T05:10:27.431Z,1005.49
2018-12-11T05:11:27.410Z,1005.51
2018-12-11T05:12:27.398Z,1005.40
2018-12-11T05:13:27.387Z,1005.55
2018-12-11T05:14:27.379Z,1005.53
2018-12-11T05:15:27.366Z,1005.51
2018-12-11T05:16:27.646Z,1005.51
2018-12-11T05:17:27.343Z,1005.49
2018-12-11T05:18:27.333Z,1005.55
2018-12-11T05:19:27.320Z,1005.55
2018-12-11T05:20:27.310Z,1005.57
2018-12-11T05:21:27.299Z,1005.59
2018-12-11T05:22:27.597Z,1005.62
2018-12-11T05:23:27.276Z,1005.56
2018-12-11T05:24:27.266Z,1005.66
2018-12-11T05:25:27.254Z,1005.62
2018-12-11T05:26:27.244Z,1005.62
2018-12-11T05:27:27.233Z,1005.60
2018-12-11T05:28:27.506Z,1005.63
2018-12-11T05:29:27.211Z,1005.76
2018-12-11T05:30:27.199Z,1005.71
2018-12-11T05:31:27.188Z,1005.66
2018-12-11T05:32:27.178Z,1005.68
2018-12-11T05:33:27.167Z,1005.69
2018-12-11T05:34:27.446Z,1005.70
2018-12-11T05:35:27.146Z,1005.72
2018-12-11T05:36:27.134Z,1005.81
2018-12-11T05:37:27.123Z,1005.85
2018-12-11T05:38:27.113Z,1005.79
2018-12-11T05:39:27.101Z,1005.83
2018-12-11T05:40:27.349Z,1005.82
2018-12-11T05:41:27.078Z,1005.81
2018-12-11T05:42:27.070Z,1005.87
2018-12-11T05:43:27.056Z,1005.87
2018-12-11T05:44:27.047Z,1005.87
2018-12-11T05:45:27.034Z,1005.99
2018-12-11T05:46:27.346Z,1005.94
2018-12-11T05:47:27.011Z,1005.88
2018-12-11T05:48:27.001Z,1005.95
2018-12-11T05:49:27.002Z,1005.92
2018-12-11T05:50:26.980Z,1005.89
2018-12-11T05:51:26.969Z,1005.94
2018-12-11T05:52:27.279Z,1005.92
2018-12-11T05:53:26.946Z,1005.99
2018-12-11T05:54:26.938Z,1005.98
2018-12-11T05:55:26.923Z,1006.04
2018-12-11T05:56:26.912Z,1006.05
2018-12-11T05:57:26.901Z,1006.09
2018-12-11T05:58:26.897Z,1006.11
2018-12-11T05:59:26.882Z,1006.14
2018-12-11T06:00:26.867Z,1006.20
2018-12-11T06:01:26.858Z,1006.18
2018-12-11T06:02:26.847Z,1006.16
2018-12-11T06:03:26.835Z,1006.22
2018-12-11T06:04:27.117Z,1006.32
2018-12-11T06:05:26.814Z,1006.24
2018-12-11T06:06:26.803Z,1006.41
2018-12-11T06:07:26.791Z,1006.39
2018-12-11T06:08:26.778Z,1006.50
2018-12-11T06:09:26.768Z,1006.53
2018-12-11T06:10:26.766Z,1006.55
2018-12-11T06:11:26.750Z,1006.60
2018-12-11T06:12:26.738Z,1006.55
2018-12-11T06:13:26.725Z,1006.63
2018-12-11T06:14:26.716Z,1006.59
2018-12-11T06:15:26.705Z,1006.61
2018-12-11T06:16:26.700Z,1006.62
2018-12-11T06:17:26.680Z,1006.61
2018-12-11T06:18:26.670Z,1006.68
2018-12-11T06:19:26.658Z,1006.60
2018-12-11T06:20:26.646Z,1006.60
2018-12-11T06:21:26.636Z,1006.65
2018-12-11T06:22:26.908Z,1006.66
2018-12-11T06:23:26.614Z,1006.59
2018-12-11T06:24:26.604Z,1006.61
2018-12-11T06:25:26.592Z,1006.65
2018-12-11T06:26:26.581Z,1006.65
2018-12-11T06:27:26.570Z,1006.68
2018-12-11T06:28:26.565Z,1006.71
2018-12-11T06:29:26.546Z,1006.67
2018-12-11T06:30:26.536Z,1006.69
2018-12-11T06:31:26.529Z,1006.69
2018-12-11T06:32:26.513Z,1006.72
2018-12-11T06:33:26.507Z,1006.72
2018-12-11T06:34:26.500Z,1006.73
2018-12-11T06:35:26.487Z,1006.74
2018-12-11T06:36:26.469Z,1006.77
2018-12-11T06:37:26.460Z,1006.78
2018-12-11T06:38:26.448Z,1006.76
2018-12-11T06:39:26.437Z,1006.77
2018-12-11T06:40:26.714Z,1006.86
2018-12-11T06:41:26.413Z,1006.95
2018-12-11T06:42:26.405Z,1006.83
2018-12-11T06:43:26.392Z,1006.89
2018-12-11T06:44:26.383Z,1006.89
2018-12-11T06:45:26.370Z,1006.90
2018-12-11T06:46:26.652Z,1006.96
2018-12-11T06:47:26.348Z,1006.93
2018-12-11T06:48:26.337Z,1006.97
2018-12-11T06:49:26.328Z,1006.97
2018-12-11T06:50:26.314Z,1007.00
2018-12-11T06:51:26.302Z,1007.02
2018-12-11T06:52:26.579Z,1007.07
2018-12-11T06:53:26.281Z,1007.08
2018-12-11T06:54:26.270Z,1007.02
2018-12-11T06:55:26.263Z,1007.10
2018-12-11T06:56:26.247Z,1007.14
2018-12-11T06:57:26.241Z,1007.05
2018-12-11T06:58:26.301Z,1007.08
2018-12-11T06:59:26.214Z,1007.15
2018-12-11T07:00:26.206Z,1007.14
2018-12-11T07:01:26.192Z,1007.13
2018-12-11T07:02:26.180Z,1007.21
2018-12-11T07:03:26.171Z,1007.18
2018-12-11T07:04:26.165Z,1007.14
2018-12-11T07:05:26.148Z,1007.14
2018-12-11T07:06:26.138Z,1007.20
2018-12-11T07:07:26.125Z,1007.22
2018-12-11T07:08:26.115Z,1007.24
2018-12-11T07:09:26.105Z,1007.17
2018-12-11T07:10:26.377Z,1007.23
2018-12-11T07:11:26.087Z,1007.19
2018-12-11T07:12:26.071Z,1007.23
2018-12-11T07:13:26.061Z,1007.23
2018-12-11T07:14:26.048Z,1007.31
2018-12-11T07:15:26.040Z,1007.23
2018-12-11T07:16:26.303Z,1007.23
2018-12-11T07:17:26.016Z,1007.27
2018-12-11T07:18:26.169Z,1007.23
2018-12-11T07:19:25.993Z,1007.21
2018-12-11T07:20:25.986Z,1007.23
2018-12-11T07:21:25.976Z,1007.27
2018-12-11T07:22:25.968Z,1007.24
2018-12-11T07:23:25.948Z,1007.34
2018-12-11T07:24:25.939Z,1007.30
2018-12-11T07:25:25.928Z,1007.35
2018-12-11T07:26:25.919Z,1007.34
2018-12-11T07:27:25.903Z,1007.35
2018-12-11T07:28:25.901Z,1007.40
2018-12-11T07:29:25.883Z,1007.38
2018-12-11T07:30:25.871Z,1007.41
2018-12-11T07:31:25.863Z,1007.46
2018-12-11T07:32:25.851Z,1007.42
2018-12-11T07:33:25.839Z,1007.46
2018-12-11T07:34:25.849Z,1007.47
2018-12-11T07:35:25.814Z,1007.46
2018-12-11T07:36:25.808Z,1007.48
2018-12-11T07:37:25.794Z,1007.55
2018-12-11T07:38:25.782Z,1007.55
2018-12-11T07:39:25.771Z,1007.59
2018-12-11T07:40:25.768Z,1007.58
2018-12-11T07:41:25.749Z,1007.64
2018-12-11T07:42:25.745Z,1007.69
2018-12-11T07:43:25.729Z,1007.65
2018-12-11T07:44:25.717Z,1007.68
2018-12-11T07:45:25.705Z,1007.70
2018-12-11T07:46:26.033Z,1007.75
2018-12-11T07:47:25.683Z,1007.70
2018-12-11T07:48:25.671Z,1007.77
2018-12-11T07:49:25.662Z,1007.72
2018-12-11T07:50:25.648Z,1007.73
2018-12-11T07:51:25.639Z,1007.76
2018-12-11T07:52:25.632Z,1007.85
2018-12-11T07:53:25.618Z,1007.76
2018-12-11T07:54:25.605Z,1007.84
2018-12-11T07:55:25.595Z,1007.84
2018-12-11T07:56:25.583Z,1007.79
2018-12-11T07:57:25.573Z,1007.87
2018-12-11T07:58:25.879Z,1007.89
2018-12-11T07:59:25.553Z,1007.94
2018-12-11T08:00:25.537Z,1007.83
2018-12-11T08:01:25.526Z,1008.01
2018-12-11T08:02:25.516Z,1007.84
2018-12-11T08:03:25.504Z,1007.97
2018-12-11T08:04:25.502Z,1007.91
2018-12-11T08:05:25.486Z,1007.91
2018-12-11T08:06:25.473Z,1008.01
2018-12-11T08:07:25.465Z,1007.95
2018-12-11T08:08:25.450Z,1007.99
2018-12-11T08:09:25.440Z,1008.04
2018-12-11T08:10:25.720Z,1008.00
2018-12-11T08:11:25.417Z,1008.01
2018-12-11T08:12:25.407Z,1007.97
2018-12-11T08:13:25.395Z,1008.04
2018-12-11T08:14:25.385Z,1008.07
2018-12-11T08:15:25.373Z,1008.08
2018-12-11T08:16:25.705Z,1008.01
2018-12-11T08:17:25.352Z,1008.11
2018-12-11T08:18:25.339Z,1008.03
2018-12-11T08:19:25.329Z,1008.11
2018-12-11T08:20:25.321Z,1008.05
2018-12-11T08:21:25.306Z,1008.14
2018-12-11T08:22:25.304Z,1008.15
2018-12-11T08:23:25.283Z,1008.19
2018-12-11T08:24:25.274Z,1008.19
2018-12-11T08:25:25.262Z,1008.23
2018-12-11T08:26:25.250Z,1008.20
2018-12-11T08:27:25.242Z,1008.35
2018-12-11T08:28:25.250Z,1008.29
2018-12-11T08:29:25.218Z,1008.34
2018-12-11T08:30:25.207Z,1008.39
2018-12-11T08:31:25.196Z,1008.42
2018-12-11T08:32:25.192Z,1008.38
2018-12-11T08:33:25.173Z,1008.39
2018-12-11T08:34:25.462Z,1008.44
2018-12-11T08:35:25.152Z,1008.52
2018-12-11T08:36:25.139Z,1008.52
2018-12-11T08:37:25.129Z,1008.47
2018-12-11T08:38:25.117Z,1008.56
2018-12-11T08:39:25.106Z,1008.51
2018-12-11T08:40:25.384Z,1008.54
2018-12-11T08:41:25.091Z,1008.56
2018-12-11T08:42:25.072Z,1008.57
2018-12-11T08:43:25.065Z,1008.59
2018-12-11T08:44:25.052Z,1008.65
2018-12-11T08:45:25.040Z,1008.63
2018-12-11T08:46:25.316Z,1008.68
2018-12-11T08:47:25.019Z,1008.69
2018-12-11T08:48:25.009Z,1008.65
2018-12-11T08:49:25.000Z,1008.69
2018-12-11T08:50:24.987Z,1008.68
2018-12-11T08:51:24.979Z,1008.73
2018-12-11T08:52:25.241Z,1008.75
2018-12-11T08:53:24.957Z,1008.74
2018-12-11T08:54:24.948Z,1008.79
2018-12-11T08:55:24.931Z,1008.76
2018-12-11T08:56:24.921Z,1008.71
2018-12-11T08:57:24.907Z,1008.72
2018-12-11T08:58:25.169Z,1008.73
2018-12-11T08:59:24.885Z,1008.69
2018-12-11T09:00:24.875Z,1008.78
2018-12-11T09:01:24.866Z,1008.78
2018-12-11T09:02:24.852Z,1008.81
2018-12-11T09:03:24.845Z,1008.77
2018-12-11T09:04:25.158Z,1008.80
2018-12-11T09:05:24.821Z,1008.82
2018-12-11T09:06:24.809Z,1008.83
2018-12-11T09:07:24.797Z,1008.85
2018-12-11T09:08:24.786Z,1008.91
2018-12-11T09:09:24.773Z,1008.97
2018-12-11T09:10:25.056Z,1008.97
2018-12-11T09:11:24.755Z,1009.04
2018-12-11T09:12:24.741Z,1009.02
2018-12-11T09:13:24.732Z,1009.06
2018-12-11T09:14:24.733Z,1009.01
2018-12-11T09:15:24.709Z,1009.01
2018-12-11T09:16:24.992Z,1009.02
2018-12-11T09:17:24.687Z,1008.99
2018-12-11T09:18:24.679Z,1009.05
2018-12-11T09:19:24.727Z,1008.99
2018-12-11T09:20:24.653Z,1008.99
2018-12-11T09:21:24.642Z,1009.00
2018-12-11T09:22:24.907Z,1009.02
2018-12-11T09:23:24.623Z,1009.04
2018-12-11T09:24:24.609Z,1009.07
2018-12-11T09:25:24.599Z,1009.06
2018-12-11T09:26:24.589Z,1009.12
2018-12-11T09:27:24.580Z,1009.07
2018-12-11T09:28:24.848Z,1009.10
2018-12-11T09:29:24.557Z,1009.14
2018-12-11T09:30:24.545Z,1009.13
2018-12-11T09:31:24.537Z,1009.10
2018-12-11T09:32:24.524Z,1009.12
2018-12-11T09:33:24.512Z,1009.14
2018-12-11T09:34:24.777Z,1009.12
2018-12-11T09:35:24.495Z,1009.17
2018-12-11T09:36:24.479Z,1009.14
2018-12-11T09:37:24.469Z,1009.26
2018-12-11T09:38:24.454Z,1009.20
2018-12-11T09:39:24.441Z,1009.21
2018-12-11T09:40:24.731Z,1009.19
2018-12-11T09:41:24.421Z,1009.19
2018-12-11T09:42:27.984Z,1009.18
2018-12-11T09:43:24.398Z,1009.21
2018-12-11T09:44:24.388Z,1009.22
2018-12-11T09:45:24.378Z,1009.19
2018-12-11T09:46:24.674Z,1009.23
2018-12-11T09:47:24.353Z,1009.31
2018-12-11T09:48:24.345Z,1009.27
2018-12-11T09:49:24.332Z,1009.23
2018-12-11T09:50:24.321Z,1009.26
2018-12-11T09:51:24.316Z,1009.21
2018-12-11T09:52:24.305Z,1009.26
2018-12-11T09:53:24.287Z,1009.32
2018-12-11T09:54:24.277Z,1009.32
2018-12-11T09:55:24.265Z,1009.36
2018-12-11T09:56:24.296Z,1009.35
2018-12-11T09:57:24.242Z,1009.37
2018-12-11T09:58:24.508Z,1009.35
2018-12-11T09:59:24.223Z,1009.34
2018-12-11T10:00:27.284Z,1009.37
2018-12-11T10:01:24.200Z,1009.49
2018-12-11T10:02:24.190Z,1009.36
2018-12-11T10:03:24.180Z,1009.44
2018-12-11T10:04:24.174Z,1009.52
2018-12-11T10:05:24.153Z,1009.53
2018-12-11T10:06:24.169Z,1009.48
2018-12-11T10:07:24.147Z,1009.45
2018-12-11T10:08:24.122Z,1009.48
2018-12-11T10:09:24.117Z,1009.54
2018-12-11T10:10:24.110Z,1009.52
2018-12-11T10:11:24.090Z,1009.47
2018-12-11T10:12:24.079Z,1009.54
2018-12-11T10:13:24.066Z,1009.51
2018-12-11T10:14:24.057Z,1009.52
2018-12-11T10:15:24.049Z,1009.52
2018-12-11T10:16:24.045Z,1009.48
2018-12-11T10:17:24.023Z,1009.62
2018-12-11T10:18:24.010Z,1009.60
2018-12-11T10:19:24.002Z,1009.56
2018-12-11T10:20:23.991Z,1009.63
2018-12-11T10:21:23.979Z,1009.59
2018-12-11T10:22:23.977Z,1009.59
2018-12-11T10:23:23.955Z,1009.64
2018-12-11T10:24:23.946Z,1009.61
2018-12-11T10:25:23.943Z,1009.66
2018-12-11T10:26:23.927Z,1009.67
2018-12-11T10:27:23.914Z,1009.70
2018-12-11T10:28:24.161Z,1009.65
2018-12-11T10:29:23.966Z,1009.67
2018-12-11T10:30:23.878Z,1009.63
2018-12-11T10:31:23.867Z,1009.67
2018-12-11T10:32:23.856Z,1009.73
2018-12-11T10:33:23.846Z,1009.68
2018-12-11T10:34:24.137Z,1009.71
2018-12-11T10:35:23.825Z,1009.71
2018-12-11T10:36:23.812Z,1009.72
2018-12-11T10:37:23.801Z,1009.68
2018-12-11T10:38:23.812Z,1009.71
2018-12-11T10:39:23.778Z,1009.76
2018-12-11T10:40:24.059Z,1009.74
2018-12-11T10:41:23.757Z,1009.81
2018-12-11T10:42:23.745Z,1009.80
2018-12-11T10:43:23.734Z,1009.83
2018-12-11T10:44:23.723Z,1009.79
2018-12-11T10:45:23.714Z,1009.76
2018-12-11T10:46:23.992Z,1009.78
2018-12-11T10:47:23.690Z,1009.74
2018-12-11T10:48:23.681Z,1009.78
2018-12-11T10:49:23.668Z,1009.80
2018-12-11T10:50:23.659Z,1009.82
2018-12-11T10:51:23.646Z,1009.82
2018-12-11T10:52:23.937Z,1009.85
2018-12-11T10:53:23.625Z,1009.88
2018-12-11T10:54:23.612Z,1009.89
2018-12-11T10:55:23.608Z,1009.95
2018-12-11T10:56:23.591Z,1009.92
2018-12-11T10:57:23.597Z,1009.92
2018-12-11T10:58:24.380Z,1009.88
2018-12-11T10:59:23.612Z,1009.90
2018-12-11T11:00:23.547Z,1009.97
2018-12-11T11:01:23.535Z,1009.97
2018-12-11T11:02:23.527Z,1009.92
2018-12-11T11:03:23.513Z,1009.95
2018-12-11T11:04:23.801Z,1010.01
2018-12-11T11:05:23.492Z,1010.04
2018-12-11T11:06:23.479Z,1010.01
2018-12-11T11:07:23.472Z,1009.98
2018-12-11T11:08:23.459Z,1010.06
2018-12-11T11:09:23.451Z,1010.01
2018-12-11T11:10:23.722Z,1010.09
2018-12-11T11:11:23.424Z,1010.05
2018-12-11T11:12:23.415Z,1009.99
2018-12-11T11:13:23.401Z,1010.03
2018-12-11T11:14:23.396Z,1010.04
2018-12-11T11:15:23.387Z,1010.04
2018-12-11T11:16:23.378Z,1010.08
2018-12-11T11:17:23.360Z,1010.07
2018-12-11T11:18:23.348Z,1010.10
2018-12-11T11:19:23.338Z,1010.16
2018-12-11T11:20:23.329Z,1010.10
2018-12-11T11:21:23.314Z,1010.21
2018-12-11T11:22:23.590Z,1010.12
2018-12-11T11:23:23.293Z,1010.18
2018-12-11T11:24:23.281Z,1010.16
2018-12-11T11:25:23.278Z,1010.17
2018-12-11T11:26:23.261Z,1010.18
2018-12-11T11:27:23.250Z,1010.15
2018-12-11T11:28:23.522Z,1010.25
2018-12-11T11:29:23.227Z,1010.24
2018-12-11T11:30:23.217Z,1010.26
2018-12-11T11:31:23.203Z,1010.23
2018-12-11T11:32:23.194Z,1010.27
2018-12-11T11:33:23.185Z,1010.27
2018-12-11T11:34:23.462Z,1010.24
2018-12-11T11:35:23.159Z,1010.25
2018-12-11T11:36:23.150Z,1010.29
2018-12-11T11:37:23.136Z,1010.29
2018-12-11T11:38:23.130Z,1010.31
2018-12-11T11:39:23.115Z,1010.28
2018-12-11T11:40:23.375Z,1010.30
2018-12-11T11:41:23.093Z,1010.33
2018-12-11T11:42:23.086Z,1010.37
2018-12-11T11:43:23.071Z,1010.37
2018-12-11T11:44:23.060Z,1010.39
2018-12-11T11:45:23.048Z,1010.35
2018-12-11T11:46:23.318Z,1010.34
2018-12-11T11:47:23.026Z,1010.32
2018-12-11T11:48:23.015Z,1010.38
2018-12-11T11:49:23.014Z,1010.38
2018-12-11T11:50:22.998Z,1010.44
2018-12-11T11:51:22.984Z,1010.46
2018-12-11T11:52:23.262Z,1010.39
2018-12-11T11:53:22.959Z,1010.38
2018-12-11T11:54:22.949Z,1010.43
2018-12-11T11:55:22.937Z,1010.45
2018-12-11T11:56:22.927Z,1010.41
2018-12-11T11:57:22.916Z,1010.46
2018-12-11T11:58:23.232Z,1010.42
2018-12-11T11:59:22.894Z,1010.47
2018-12-11T12:00:22.882Z,1010.48
2018-12-11T12:01:22.873Z,1010.47
2018-12-11T12:02:22.861Z,1010.48
2018-12-11T12:03:22.850Z,1010.49
2018-12-11T12:04:23.153Z,1010.54
2018-12-11T12:05:22.826Z,1010.55